Terminal Aerodrome Forecast
Issued by NWS Cleveland, OH

Home | Current Version | Previous Version | Text Only | Print | Product List | Glossary On
Versions: 1 2 3 4 5 6 7 8 9 10 11 12 13 14 15 16 17 18 19 20 21 22
000
FTUS41 KCLE 250755 AAA
TAFYNG
TAF AMD
KYNG 250755Z 2508/2606 33007KT P6SM SCT015 OVC028
      TEMPO 2509/2513 BKN015
     FM251800 35008KT P6SM BKN035
     FM252200 36007KT P6SM SCT040
     FM260200 05004KT P6SM FEW250=

USA.gov is the U.S. government's official web portal to all federal, state and local government web resources and services.